Wetterdaten: Montag, 16.08.2010
Datum Zeit Temp. A. Feuchte A. Luftdruck Regen Wind Richtung Richtung Sonnenschein UV Solar Windben
16.08.2010 00:00 15,1 C 93 % 1007,8 hPa 0,0 mm 0,0 km/h (0 Bft) O-SO 113 0 min 0 UV-I 0 W/m 1,6 km/h (1 Bft)
16.08.2010 00:10 15,1 C 93 % 1007,7 hPa 0,0 mm 0,0 km/h (0 Bft) O-SO 113 0 min 0 UV-I 0 W/m 0,0 km/h (0 Bft)
16.08.2010 00:20 14,9 C 93 % 1007,8 hPa 0,0 mm 0,0 km/h (0 Bft) O-SO 113 0 min 0 UV-I 0 W/m 0,0 km/h (0 Bft)
16.08.2010 00:30 14,8 C 93 % 1008,0 hPa 0,0 mm 0,0 km/h (0 Bft) O-SO 113 0 min 0 UV-I 0 W/m 0,0 km/h (0 Bft)
16.08.2010 00:40 15,0 C 93 % 1007,8 hPa 0,0 mm 0,0 km/h (0 Bft) O-SO 113 0 min 0 UV-I 0 W/m 0,0 km/h (0 Bft)
16.08.2010 00:50 15,1 C 93 % 1007,5 hPa 0,0 mm 0,0 km/h (0 Bft) O-SO 113 0 min 0 UV-I 0 W/m 0,0 km/h (0 Bft)
16.08.2010 01:00 14,9 C 93 % 1007,2 hPa 0,0 mm 0,0 km/h (0 Bft) O-SO 113 0 min 0 UV-I 0 W/m 0,0 km/h (0 Bft)
16.08.2010 01:10 14,7 C 93 % 1007,3 hPa 0,0 mm 0,0 km/h (0 Bft) O-SO 113 0 min 0 UV-I 0 W/m 0,0 km/h (0 Bft)
16.08.2010 01:20 15,1 C 94 % 1007,2 hPa 0,0 mm 0,0 km/h (0 Bft) O-SO 113 0 min 0 UV-I 0 W/m 0,0 km/h (0 Bft)
16.08.2010 01:30 15,3 C 94 % 1007,3 hPa 0,0 mm 1,9 km/h (1 Bft) O-SO 121 0 min 0 UV-I 0 W/m 11,3 km/h (2 Bft)
16.08.2010 01:40 15,3 C 94 % 1007,2 hPa 0,0 mm 2,1 km/h (1 Bft) SO 132 0 min 0 UV-I 0 W/m 9,7 km/h (2 Bft)
16.08.2010 01:50 15,3 C 94 % 1007,0 hPa 0,0 mm 1,0 km/h (0 Bft) S 174 0 min 0 UV-I 0 W/m 6,4 km/h (2 Bft)
16.08.2010 02:00 15,1 C 93 % 1007,1 hPa 0,0 mm 2,0 km/h (1 Bft) O-SO 105 0 min 0 UV-I 0 W/m 8,0 km/h (2 Bft)
16.08.2010 02:10 15,1 C 93 % 1007,2 hPa 0,0 mm 1,7 km/h (1 Bft) SO 142 0 min 0 UV-I 0 W/m 8,0 km/h (2 Bft)
16.08.2010 02:20 15,1 C 93 % 1007,1 hPa 0,0 mm 0,5 km/h (0 Bft) S 172 0 min 0 UV-I 0 W/m 3,2 km/h (1 Bft)
16.08.2010 02:30 15,1 C 93 % 1007,3 hPa 0,0 mm 1,7 km/h (1 Bft) S-SO 163 0 min 0 UV-I 0 W/m 8,0 km/h (2 Bft)
16.08.2010 02:40 15,1 C 93 % 1007,3 hPa 0,0 mm 1,4 km/h (1 Bft) O-SO 105 0 min 0 UV-I 0 W/m 8,0 km/h (2 Bft)
16.08.2010 02:50 15,1 C 93 % 1007,4 hPa 0,0 mm 1,0 km/h (0 Bft) O-SO 123 0 min 0 UV-I 0 W/m 4,8 km/h (1 Bft)
16.08.2010 03:00 15,1 C 93 % 1007,2 hPa 0,0 mm 1,9 km/h (1 Bft) O 94 0 min 0 UV-I 0 W/m 14,5 km/h (3 Bft)
16.08.2010 03:10 15,1 C 92 % 1007,3 hPa 0,0 mm 0,8 km/h (0 Bft) O-SO 111 0 min 0 UV-I 0 W/m 4,8 km/h (1 Bft)
16.08.2010 03:20 15,1 C 92 % 1007,2 hPa 0,0 mm 0,2 km/h (0 Bft) O-SO 111 0 min 0 UV-I 0 W/m 3,2 km/h (1 Bft)
16.08.2010 03:30 15,1 C 92 % 1007,2 hPa 0,0 mm 0,4 km/h (0 Bft) O-SO 110 0 min 0 UV-I 0 W/m 3,2 km/h (1 Bft)
16.08.2010 03:40 15,1 C 92 % 1007,3 hPa 0,0 mm 0,7 km/h (0 Bft) O-SO 111 0 min 0 UV-I 0 W/m 3,2 km/h (1 Bft)
16.08.2010 03:50 15,1 C 92 % 1007,5 hPa 0,0 mm 1,7 km/h (1 Bft) O 101 0 min 0 UV-I 0 W/m 6,4 km/h (2 Bft)
16.08.2010 04:00 15,1 C 92 % 1007,5 hPa 0,0 mm 0,9 km/h (0 Bft) O 101 0 min 0 UV-I 0 W/m 4,8 km/h (1 Bft)
16.08.2010 04:10 15,0 C 92 % 1007,5 hPa 0,0 mm 0,7 km/h (0 Bft) O 101 0 min 0 UV-I 0 W/m 4,8 km/h (1 Bft)
16.08.2010 04:20 14,9 C 92 % 1007,3 hPa 0,0 mm 1,0 km/h (0 Bft) O-SO 106 0 min 0 UV-I 0 W/m 4,8 km/h (1 Bft)
16.08.2010 04:30 14,9 C 92 % 1007,1 hPa 0,0 mm 1,4 km/h (1 Bft) O-SO 118 0 min 0 UV-I 0 W/m 8,0 km/h (2 Bft)
16.08.2010 04:40 14,9 C 92 % 1007,0 hPa 0,0 mm 0,9 km/h (0 Bft) O-SO 123 0 min 0 UV-I 0 W/m 6,4 km/h (2 Bft)
16.08.2010 04:50 15,1 C 91 % 1007,1 hPa 0,0 mm 1,9 km/h (1 Bft) O-SO 107 0 min 0 UV-I 0 W/m 6,4 km/h (2 Bft)
16.08.2010 05:00 15,1 C 91 % 1006,8 hPa 0,0 mm 1,4 km/h (1 Bft) O-SO 111 0 min 0 UV-I 0 W/m 6,4 km/h (2 Bft)
16.08.2010 05:10 15,1 C 91 % 1006,7 hPa 0,0 mm 1,7 km/h (1 Bft) O 96 0 min 0 UV-I 0 W/m 6,4 km/h (2 Bft)
16.08.2010 05:20 15,0 C 91 % 1006,4 hPa 0,0 mm 3,0 km/h (1 Bft) O-SO 118 0 min 0 UV-I 0 W/m 11,3 km/h (2 Bft)
16.08.2010 05:30 14,8 C 90 % 1006,6 hPa 0,0 mm 2,2 km/h (1 Bft) SO 134 0 min 0 UV-I 0 W/m 9,7 km/h (2 Bft)
16.08.2010 05:40 14,8 C 90 % 1006,6 hPa 0,0 mm 3,0 km/h (1 Bft) O-SO 105 0 min 0 UV-I 0 W/m 11,3 km/h (2 Bft)
16.08.2010 05:50 14,8 C 90 % 1006,6 hPa 0,0 mm 1,6 km/h (1 Bft) SO 134 0 min 0 UV-I 0 W/m 8,0 km/h (2 Bft)
16.08.2010 06:00 14,8 C 90 % 1006,5 hPa 0,0 mm 1,4 km/h (1 Bft) O-SO 115 0 min 0 UV-I 0 W/m 6,4 km/h (2 Bft)
16.08.2010 06:10 14,8 C 90 % 1006,5 hPa 0,0 mm 0,7 km/h (0 Bft) O-SO 113 0 min 0 UV-I 0 W/m 6,4 km/h (2 Bft)
16.08.2010 06:20 14,8 C 89 % 1006,5 hPa 0,0 mm 0,8 km/h (0 Bft) O-SO 109 0 min 0 UV-I 0 W/m 6,4 km/h (2 Bft)
16.08.2010 06:30 14,8 C 89 % 1006,6 hPa 0,0 mm 2,2 km/h (1 Bft) O-SO 111 0 min 0 UV-I 0 W/m 6,4 km/h (2 Bft)
16.08.2010 06:40 14,8 C 89 % 1006,6 hPa 0,0 mm 1,1 km/h (1 Bft) SO 125 0 min 0 UV-I 1 W/m 6,4 km/h (2 Bft)
16.08.2010 06:50 14,8 C 89 % 1006,8 hPa 0,0 mm 1,6 km/h (1 Bft) O-SO 112 0 min 0 UV-I 7 W/m 6,4 km/h (2 Bft)
16.08.2010 07:00 14,9 C 89 % 1006,9 hPa 0,0 mm 1,6 km/h (1 Bft) SO 135 0 min 0 UV-I 9 W/m 6,4 km/h (2 Bft)
16.08.2010 07:10 14,9 C 89 % 1006,7 hPa 0,0 mm 1,6 km/h (1 Bft) O-SO 112 0 min 0 UV-I 19 W/m 6,4 km/h (2 Bft)
16.08.2010 07:20 14,9 C 89 % 1006,6 hPa 0,0 mm 1,6 km/h (1 Bft) O-SO 112 0 min 0 UV-I 26 W/m 8,0 km/h (2 Bft)
16.08.2010 07:30 15,1 C 88 % 1006,6 hPa 0,0 mm 1,6 km/h (1 Bft) O-SO 112 0 min 0 UV-I 30 W/m 8,0 km/h (2 Bft)
16.08.2010 07:40 15,1 C 88 % 1006,5 hPa 0,0 mm 0,0 km/h (0 Bft) O-SO 112 0 min 0 UV-I 40 W/m 6,4 km/h (2 Bft)
16.08.2010 07:50 15,1 C 88 % 1006,8 hPa 0,0 mm 1,6 km/h (1 Bft) O-SO 112 0 min 0 UV-I 53 W/m 8,0 km/h (2 Bft)
16.08.2010 08:00 15,3 C 88 % 1007,3 hPa 0,0 mm 1,5 km/h (1 Bft) O-SO 105 0 min 0 UV-I 40 W/m 4,8 km/h (1 Bft)
16.08.2010 08:10 15,3 C 88 % 1007,3 hPa 0,0 mm 1,6 km/h (1 Bft) O-SO 112 0 min 0 UV-I 40 W/m 6,4 km/h (2 Bft)
16.08.2010 08:20 15,2 C 87 % 1007,5 hPa 0,0 mm 3,2 km/h (1 Bft) O-SO 112 0 min 0 UV-I 39 W/m 9,7 km/h (2 Bft)
16.08.2010 08:30 15,2 C 87 % 1007,4 hPa 0,0 mm 3,2 km/h (1 Bft) O-SO 112 0 min 0 UV-I 30 W/m 8,0 km/h (2 Bft)
16.08.2010 08:40 15,1 C 87 % 1007,3 hPa 0,0 mm 0,0 km/h (0 Bft) O-SO 112 0 min 0 UV-I 47 W/m 6,4 km/h (2 Bft)
16.08.2010 08:50 15,2 C 87 % 1007,3 hPa 0,0 mm 1,6 km/h (1 Bft) O-SO 112 0 min 1 UV-I 95 W/m 9,7 km/h (2 Bft)
16.08.2010 09:00 15,4 C 86 % 1007,2 hPa 0,0 mm 1,6 km/h (1 Bft) O-SO 112 0 min 1 UV-I 118 W/m 8,0 km/h (2 Bft)
16.08.2010 09:10 15,8 C 85 % 1007,1 hPa 0,0 mm 1,6 km/h (1 Bft) O-SO 112 10 min 1 UV-I 248 W/m 8,0 km/h (2 Bft)
16.08.2010 09:20 16,2 C 84 % 1007,2 hPa 0,0 mm 1,6 km/h (1 Bft) O-SO 112 0 min 1 UV-I 142 W/m 9,7 km/h (2 Bft)
16.08.2010 09:30 16,2 C 84 % 1007,1 hPa 0,0 mm 1,6 km/h (1 Bft) S 180 0 min 1 UV-I 130 W/m 6,4 km/h (2 Bft)
16.08.2010 09:40 16,3 C 84 % 1007,0 hPa 0,0 mm 1,6 km/h (1 Bft) S-SO 157 0 min 1 UV-I 163 W/m 4,8 km/h (1 Bft)
16.08.2010 09:50 16,4 C 84 % 1006,9 hPa 0,0 mm 1,6 km/h (1 Bft) S 180 10 min 2 UV-I 290 W/m 8,0 km/h (2 Bft)
16.08.2010 10:00 16,9 C 80 % 1006,9 hPa 0,0 mm 1,6 km/h (1 Bft) SO 135 10 min 2 UV-I 387 W/m 8,0 km/h (2 Bft)
16.08.2010 10:10 17,2 C 79 % 1007,0 hPa 0,0 mm 3,2 km/h (1 Bft) O-SO 112 10 min 2 UV-I 359 W/m 11,3 km/h (2 Bft)
16.08.2010 10:20 17,3 C 80 % 1006,9 hPa 0,0 mm 1,6 km/h (1 Bft) SO 135 10 min 2 UV-I 355 W/m 6,4 km/h (2 Bft)
16.08.2010 10:30 17,6 C 78 % 1007,0 hPa 0,0 mm 1,6 km/h (1 Bft) SO 135 0 min 2 UV-I 309 W/m 11,3 km/h (2 Bft)
16.08.2010 10:40 17,6 C 77 % 1007,1 hPa 0,0 mm 1,6 km/h (1 Bft) S 180 0 min 2 UV-I 232 W/m 8,0 km/h (2 Bft)
16.08.2010 10:50 17,4 C 78 % 1007,1 hPa 0,0 mm 1,6 km/h (1 Bft) S 180 0 min 2 UV-I 200 W/m 8,0 km/h (2 Bft)
16.08.2010 11:00 17,3 C 78 % 1007,1 hPa 0,0 mm 1,6 km/h (1 Bft) S 180 0 min 1 UV-I 162 W/m 8,0 km/h (2 Bft)
16.08.2010 11:10 17,3 C 77 % 1007,1 hPa 0,0 mm 1,6 km/h (1 Bft) SO 135 0 min 1 UV-I 153 W/m 9,7 km/h (2 Bft)
16.08.2010 11:20 17,2 C 79 % 1007,3 hPa 0,0 mm 1,6 km/h (1 Bft) S-SO 157 0 min 1 UV-I 123 W/m 4,8 km/h (1 Bft)
16.08.2010 11:30 17,2 C 81 % 1007,3 hPa 0,0 mm 1,6 km/h (1 Bft) SO 135 0 min 1 UV-I 81 W/m 9,7 km/h (2 Bft)
16.08.2010 11:40 16,9 C 78 % 1007,5 hPa 0,0 mm 1,6 km/h (1 Bft) SO 135 0 min 1 UV-I 74 W/m 8,0 km/h (2 Bft)
16.08.2010 11:50 16,8 C 79 % 1007,6 hPa 0,0 mm 1,6 km/h (1 Bft) S-SO 157 0 min 0 UV-I 44 W/m 9,7 km/h (2 Bft)
16.08.2010 12:00 16,6 C 80 % 1007,5 hPa 0,0 mm 3,2 km/h (1 Bft) O-SO 112 0 min 0 UV-I 53 W/m 9,7 km/h (2 Bft)
16.08.2010 12:10 16,6 C 80 % 1007,5 hPa 0,0 mm 1,6 km/h (1 Bft) SO 135 0 min 1 UV-I 60 W/m 8,0 km/h (2 Bft)
16.08.2010 12:20 16,6 C 80 % 1007,4 hPa 0,0 mm 1,6 km/h (1 Bft) S 180 0 min 1 UV-I 69 W/m 8,0 km/h (2 Bft)
16.08.2010 12:30 16,7 C 80 % 1007,4 hPa 0,0 mm 1,6 km/h (1 Bft) S-SO 157 0 min 1 UV-I 76 W/m 11,3 km/h (2 Bft)
16.08.2010 12:40 16,7 C 79 % 1007,3 hPa 0,0 mm 1,6 km/h (1 Bft) O-SO 112 0 min 1 UV-I 91 W/m 11,3 km/h (2 Bft)
16.08.2010 12:50 16,8 C 79 % 1007,3 hPa 0,0 mm 1,6 km/h (1 Bft) S 180 0 min 1 UV-I 88 W/m 8,0 km/h (2 Bft)
16.08.2010 13:00 16,8 C 80 % 1007,3 hPa 0,0 mm 3,2 km/h (1 Bft) O-SO 112 0 min 1 UV-I 79 W/m 9,7 km/h (2 Bft)
16.08.2010 13:10 16,8 C 80 % 1007,3 hPa 0,0 mm 1,6 km/h (1 Bft) O-SO 112 0 min 1 UV-I 79 W/m 8,0 km/h (2 Bft)
16.08.2010 13:20 16,9 C 80 % 1007,3 hPa 0,0 mm 0,0 km/h (0 Bft) S-SO 157 0 min 1 UV-I 81 W/m 4,8 km/h (1 Bft)
16.08.2010 13:30 16,9 C 79 % 1007,3 hPa 0,0 mm 3,2 km/h (1 Bft) SO 135 0 min 1 UV-I 79 W/m 9,7 km/h (2 Bft)
16.08.2010 13:40 16,9 C 80 % 1007,4 hPa 0,0 mm 1,6 km/h (1 Bft) O-SO 112 0 min 1 UV-I 58 W/m 8,0 km/h (2 Bft)
16.08.2010 13:50 16,8 C 80 % 1007,3 hPa 0,0 mm 1,6 km/h (1 Bft) SO 135 0 min 1 UV-I 65 W/m 9,7 km/h (2 Bft)
16.08.2010 14:00 16,8 C 80 % 1007,3 hPa 0,0 mm 1,6 km/h (1 Bft) O-SO 112 0 min 1 UV-I 70 W/m 6,4 km/h (2 Bft)
16.08.2010 14:10 16,8 C 82 % 1007,3 hPa 0,0 mm 1,6 km/h (1 Bft) SO 135 0 min 1 UV-I 88 W/m 9,7 km/h (2 Bft)
16.08.2010 14:20 16,7 C 84 % 1007,3 hPa 0,0 mm 1,6 km/h (1 Bft) SO 135 0 min 1 UV-I 102 W/m 8,0 km/h (2 Bft)
16.08.2010 14:30 16,6 C 84 % 1007,4 hPa 0,0 mm 0,0 km/h (0 Bft) S-SO 157 0 min 1 UV-I 104 W/m 4,8 km/h (1 Bft)
16.08.2010 14:40 16,7 C 85 % 1007,5 hPa 0,3 mm 0,0 km/h (0 Bft) S 180 0 min 1 UV-I 104 W/m 4,8 km/h (1 Bft)
16.08.2010 14:50 16,7 C 86 % 1007,5 hPa 0,0 mm 0,0 km/h (0 Bft) S 180 0 min 1 UV-I 91 W/m 1,6 km/h (1 Bft)
16.08.2010 15:00 16,8 C 86 % 1007,6 hPa 0,0 mm 0,0 km/h (0 Bft) S 180 0 min 1 UV-I 91 W/m 1,6 km/h (1 Bft)
16.08.2010 15:10 16,7 C 87 % 1007,6 hPa 0,3 mm 0,0 km/h (0 Bft) S 180 0 min 1 UV-I 93 W/m 3,2 km/h (1 Bft)
16.08.2010 15:20 16,7 C 87 % 1007,7 hPa 0,0 mm 0,0 km/h (0 Bft) S 180 0 min 1 UV-I 93 W/m 3,2 km/h (1 Bft)
16.08.2010 15:30 16,7 C 87 % 1007,7 hPa 0,0 mm 0,0 km/h (0 Bft) S 180 0 min 1 UV-I 76 W/m 1,6 km/h (1 Bft)
16.08.2010 15:40 16,6 C 88 % 1007,8 hPa 0,0 mm 0,0 km/h (0 Bft) N 0 0 min 0 UV-I 51 W/m 0,0 km/h (0 Bft)
16.08.2010 15:50 16,4 C 88 % 1007,8 hPa 0,3 mm 0,0 km/h (0 Bft) S 180 0 min 0 UV-I 47 W/m 1,6 km/h (1 Bft)
16.08.2010 16:00 16,3 C 89 % 1007,7 hPa 0,0 mm 0,0 km/h (0 Bft) S 183 0 min 0 UV-I 33 W/m 0,0 km/h (0 Bft)
16.08.2010 16:10 16,3 C 89 % 1007,8 hPa 0,3 mm 0,0 km/h (0 Bft) S-SW 202 0 min 0 UV-I 44 W/m 1,6 km/h (1 Bft)
16.08.2010 16:20 16,3 C 89 % 1007,7 hPa 0,0 mm 0,0 km/h (0 Bft) S-SW 202 0 min 0 UV-I 54 W/m 1,6 km/h (1 Bft)
16.08.2010 16:30 16,3 C 90 % 1007,8 hPa 0,0 mm 0,0 km/h (0 Bft) N 0 0 min 1 UV-I 62 W/m 0,0 km/h (0 Bft)
16.08.2010 16:40 16,3 C 90 % 1007,7 hPa 0,3 mm 0,0 km/h (0 Bft) S 180 0 min 1 UV-I 90 W/m 3,2 km/h (1 Bft)
16.08.2010 16:50 16,3 C 90 % 1007,6 hPa 0,0 mm 0,0 km/h (0 Bft) S-SO 157 0 min 1 UV-I 111 W/m 3,2 km/h (1 Bft)
16.08.2010 17:00 16,3 C 90 % 1007,5 hPa 0,3 mm 0,0 km/h (0 Bft) S-SO 157 0 min 1 UV-I 114 W/m 4,8 km/h (1 Bft)
16.08.2010 17:10 16,3 C 90 % 1007,5 hPa 0,0 mm 0,0 km/h (0 Bft) S 180 0 min 1 UV-I 113 W/m 3,2 km/h (1 Bft)
16.08.2010 17:20 16,4 C 90 % 1007,5 hPa 0,0 mm 0,0 km/h (0 Bft) N 0 0 min 1 UV-I 104 W/m 0,0 km/h (0 Bft)
16.08.2010 17:30 16,5 C 90 % 1007,4 hPa 0,3 mm 0,0 km/h (0 Bft) O-NO 67 0 min 0 UV-I 51 W/m 1,6 km/h (1 Bft)
16.08.2010 17:40 16,5 C 90 % 1007,4 hPa 0,0 mm 0,0 km/h (0 Bft) O-NO 67 0 min 0 UV-I 37 W/m 1,6 km/h (1 Bft)
16.08.2010 17:50 16,4 C 91 % 1007,3 hPa 0,0 mm 0,0 km/h (0 Bft) SO 135 0 min 0 UV-I 32 W/m 3,2 km/h (1 Bft)
16.08.2010 18:00 16,3 C 91 % 1007,3 hPa 0,3 mm 0,0 km/h (0 Bft) SO 135 0 min 0 UV-I 35 W/m 1,6 km/h (1 Bft)
16.08.2010 18:10 16,3 C 91 % 1007,3 hPa 0,0 mm 0,0 km/h (0 Bft) SO 135 0 min 0 UV-I 33 W/m 1,6 km/h (1 Bft)
16.08.2010 18:20 16,2 C 91 % 1007,3 hPa 0,0 mm 0,0 km/h (0 Bft) SO 135 0 min 0 UV-I 37 W/m 1,6 km/h (1 Bft)
16.08.2010 18:30 16,1 C 91 % 1007,4 hPa 0,0 mm 0,0 km/h (0 Bft) N 0 0 min 0 UV-I 33 W/m 0,0 km/h (0 Bft)
16.08.2010 18:40 16,0 C 91 % 1007,2 hPa 0,3 mm 0,0 km/h (0 Bft) N 0 0 min 0 UV-I 37 W/m 0,0 km/h (0 Bft)
16.08.2010 18:50 16,1 C 91 % 1007,2 hPa 0,0 mm 0,0 km/h (0 Bft) SO 135 0 min 0 UV-I 37 W/m 1,6 km/h (1 Bft)
16.08.2010 19:00 16,1 C 92 % 1007,1 hPa 0,0 mm 0,0 km/h (0 Bft) SO 135 0 min 0 UV-I 28 W/m 1,6 km/h (1 Bft)
16.08.2010 19:10 16,0 C 91 % 1007,0 hPa 0,3 mm 0,0 km/h (0 Bft) SO 135 0 min 0 UV-I 19 W/m 4,8 km/h (1 Bft)
16.08.2010 19:20 15,9 C 92 % 1007,0 hPa 0,0 mm 0,0 km/h (0 Bft) SO 135 0 min 0 UV-I 18 W/m 1,6 km/h (1 Bft)
16.08.2010 19:30 15,9 C 92 % 1007,0 hPa 0,0 mm 0,0 km/h (0 Bft) SO 135 0 min 0 UV-I 16 W/m 3,2 km/h (1 Bft)
16.08.2010 19:40 15,8 C 92 % 1006,9 hPa 0,3 mm 0,0 km/h (0 Bft) SO 135 0 min 0 UV-I 18 W/m 1,6 km/h (1 Bft)
16.08.2010 19:50 15,7 C 92 % 1007,0 hPa 0,0 mm 0,0 km/h (0 Bft) SO 135 0 min 0 UV-I 19 W/m 1,6 km/h (1 Bft)
16.08.2010 20:00 15,8 C 92 % 1006,9 hPa 0,0 mm 0,0 km/h (0 Bft) SO 135 0 min 0 UV-I 16 W/m 1,6 km/h (1 Bft)
16.08.2010 20:10 15,8 C 92 % 1007,0 hPa 0,3 mm 0,0 km/h (0 Bft) SO 135 0 min 0 UV-I 16 W/m 1,6 km/h (1 Bft)
16.08.2010 20:20 15,8 C 92 % 1007,0 hPa 0,0 mm 0,0 km/h (0 Bft) SO 135 0 min 0 UV-I 18 W/m 4,8 km/h (1 Bft)
16.08.2010 20:30 15,7 C 92 % 1007,0 hPa 0,3 mm 0,0 km/h (0 Bft) SO 135 0 min 0 UV-I 14 W/m 3,2 km/h (1 Bft)
16.08.2010 20:40 15,7 C 92 % 1006,8 hPa 0,0 mm 0,0 km/h (0 Bft) SO 135 0 min 0 UV-I 5 W/m 3,2 km/h (1 Bft)
16.08.2010 20:50 15,7 C 92 % 1007,0 hPa 0,3 mm 0,0 km/h (0 Bft) SO 135 0 min 0 UV-I 0 W/m 6,4 km/h (2 Bft)
16.08.2010 21:00 15,7 C 92 % 1006,9 hPa 0,0 mm 1,6 km/h (1 Bft) SO 135 0 min 0 UV-I 0 W/m 4,8 km/h (1 Bft)
16.08.2010 21:10 15,6 C 92 % 1007,1 hPa 0,0 mm 0,0 km/h (0 Bft) O-SO 112 0 min 0 UV-I 0 W/m 1,6 km/h (1 Bft)
16.08.2010 21:20 15,6 C 92 % 1007,0 hPa 0,3 mm 0,0 km/h (0 Bft) N 0 0 min 0 UV-I 0 W/m 0,0 km/h (0 Bft)
16.08.2010 21:30 15,6 C 92 % 1007,0 hPa 0,0 mm 0,0 km/h (0 Bft) O-SO 112 0 min 0 UV-I 0 W/m 1,6 km/h (1 Bft)
16.08.2010 21:40 15,6 C 92 % 1006,9 hPa 0,3 mm 0,0 km/h (0 Bft) N 0 0 min 0 UV-I 0 W/m 0,0 km/h (0 Bft)
16.08.2010 21:50 15,6 C 92 % 1006,8 hPa 0,0 mm 0,0 km/h (0 Bft) O-SO 112 0 min 0 UV-I 0 W/m 3,2 km/h (1 Bft)
16.08.2010 22:00 15,5 C 92 % 1006,7 hPa 0,0 mm 0,0 km/h (0 Bft) O-SO 112 0 min 0 UV-I 0 W/m 4,8 km/h (1 Bft)
16.08.2010 22:10 15,5 C 92 % 1006,6 hPa 0,3 mm 0,0 km/h (0 Bft) O-SO 112 0 min 0 UV-I 0 W/m 4,8 km/h (1 Bft)
16.08.2010 22:20 15,4 C 93 % 1006,6 hPa 0,0 mm 0,0 km/h (0 Bft) SO 135 0 min 0 UV-I 0 W/m 4,8 km/h (1 Bft)
16.08.2010 22:30 15,4 C 93 % 1006,5 hPa 0,0 mm 0,0 km/h (0 Bft) SO 135 0 min 0 UV-I 0 W/m 3,2 km/h (1 Bft)
16.08.2010 22:40 15,4 C 92 % 1006,5 hPa 0,3 mm 0,0 km/h (0 Bft) N 0 0 min 0 UV-I 0 W/m 0,0 km/h (0 Bft)
16.08.2010 22:50 15,4 C 92 % 1006,4 hPa 0,0 mm 0,0 km/h (0 Bft) SO 135 0 min 0 UV-I 0 W/m 4,8 km/h (1 Bft)
16.08.2010 23:00 15,4 C 92 % 1006,2 hPa 0,0 mm 0,0 km/h (0 Bft) SO 135 0 min 0 UV-I 0 W/m 4,8 km/h (1 Bft)
16.08.2010 23:10 15,4 C 92 % 1006,2 hPa 0,3 mm 0,0 km/h (0 Bft) S-SO 157 0 min 0 UV-I 0 W/m 3,2 km/h (1 Bft)
16.08.2010 23:20 15,3 C 93 % 1006,2 hPa 0,0 mm 0,0 km/h (0 Bft) SO 135 0 min 0 UV-I 0 W/m 4,8 km/h (1 Bft)
16.08.2010 23:30 15,3 C 93 % 1006,1 hPa 0,0 mm 0,0 km/h (0 Bft) SO 135 0 min 0 UV-I 0 W/m 4,8 km/h (1 Bft)
16.08.2010 23:40 15,3 C 93 % 1006,0 hPa 0,3 mm 0,0 km/h (0 Bft) SO 135 0 min 0 UV-I 0 W/m 1,6 km/h (1 Bft)
16.08.2010 23:50 15,4 C 93 % 1006,0 hPa 0,0 mm 0,0 km/h (0 Bft) SO 135 0 min 0 UV-I 0 W/m 3,2 km/h (1 Bft)
_ Min-Zeit 01:10 10:40 23:40 - 00:00 - - - - - 00:10
Minimum _ 14,7 C 77 % 1006,0 hPa - 0,0 km/h (0 Bft) - - - - - 0,0 km/h (0 Bft)
_ Max-Zeit 10:30 01:20 00:30 14:40 08:20 - - 09:10 10:00 10:00 03:00
Maximum _ 17,7 C 94 % 1008,0 hPa 0,3 mm 3,2 km/h
O-SO (1 Bft)
- - 10 min 2 UV-I 387 W/m 14,5 km/h
SO (3 Bft)
Durchschnitt _ 15,8 C 88 % 1007,1 hPa #5,1 mm 0,9 km/h (0 Bft) O-SO - #50 min. 1 UV-I 84 W/m 5,1 km/h (1 Bft)